createdAt,value
2019-06-10T00:02:02.120Z,19.80
2019-06-10T00:05:23.870Z,19.80
2019-06-10T00:08:46.413Z,19.80
2019-06-10T00:12:10.085Z,19.80
2019-06-10T00:15:32.980Z,19.80
2019-06-10T00:18:55.616Z,19.70
2019-06-10T00:22:18.300Z,19.70
2019-06-10T00:25:41.778Z,19.60
2019-06-10T00:29:05.770Z,19.60
2019-06-10T00:32:28.347Z,19.60
2019-06-10T00:35:51.453Z,19.60
2019-06-10T00:39:14.012Z,19.60
2019-06-10T00:42:36.472Z,19.40
2019-06-10T00:45:59.989Z,19.30
2019-06-10T00:49:22.799Z,19.10
2019-06-10T00:52:45.562Z,19.10
2019-06-10T00:56:10.530Z,19.10
2019-06-10T00:59:32.595Z,19.10
2019-06-10T01:02:54.919Z,19.10
2019-06-10T01:06:17.472Z,19.10
2019-06-10T01:09:41.279Z,19.20
2019-06-10T01:13:05.001Z,19.10
2019-06-10T01:16:27.711Z,19.10
2019-06-10T01:19:50.892Z,19.20
2019-06-10T01:23:15.587Z,19.10
2019-06-10T01:26:37.436Z,19.20
2019-06-10T01:30:01.484Z,19.20
2019-06-10T01:33:23.688Z,19.20
2019-06-10T01:36:46.367Z,19.20
2019-06-10T01:40:12.895Z,19.10
2019-06-10T01:43:33.059Z,19.20
2019-06-10T01:46:55.672Z,19.10
2019-06-10T01:50:19.495Z,19.20
2019-06-10T01:53:42.275Z,19.20
2019-06-10T01:57:04.875Z,19.10
2019-06-10T02:00:35.107Z,19.10
2019-06-10T02:03:57.508Z,19.10
2019-06-10T02:07:22.897Z,19.10
2019-06-10T02:10:44.779Z,19.20
2019-06-10T02:14:07.528Z,19.20
2019-06-10T02:17:31.517Z,19.20
2019-06-10T02:20:54.230Z,19.20
2019-06-10T02:24:17.693Z,19.20
2019-06-10T02:27:41.468Z,19.30
2019-06-10T02:31:04.110Z,19.30
2019-06-10T02:34:27.704Z,19.30
2019-06-10T02:37:50.288Z,19.20
2019-06-10T02:41:16.343Z,19.20
2019-06-10T02:44:37.851Z,19.10
2019-06-10T02:48:00.207Z,19.00
2019-06-10T02:51:30.003Z,18.60
2019-06-10T02:54:47.779Z,18.00
2019-06-10T02:58:13.607Z,17.20
2019-06-10T03:01:37.920Z,16.40
2019-06-10T03:04:57.950Z,16.30
2019-06-10T03:08:25.937Z,16.30
2019-06-10T03:11:45.133Z,16.50
2019-06-10T03:15:07.630Z,16.60
2019-06-10T03:18:32.673Z,16.60
2019-06-10T03:21:54.142Z,16.70
2019-06-10T03:25:16.401Z,16.80
2019-06-10T03:28:38.735Z,16.90
2019-06-10T03:32:05.201Z,16.90
2019-06-10T03:35:26.867Z,16.90
2019-06-10T03:38:49.384Z,16.80
2019-06-10T03:42:12.606Z,16.80
2019-06-10T03:45:35.412Z,16.60
2019-06-10T03:48:57.722Z,16.30
2019-06-10T03:52:23.502Z,16.20
2019-06-10T03:55:44.828Z,16.10
2019-06-10T03:59:07.344Z,15.80
2019-06-10T04:02:29.482Z,15.70
2019-06-10T04:05:52.736Z,15.50
2019-06-10T04:09:15.274Z,15.40
2019-06-10T04:12:38.007Z,15.20
2019-06-10T04:16:02.332Z,15.10
2019-06-10T04:19:26.834Z,15.00
2019-06-10T04:22:49.236Z,14.90
2019-06-10T04:26:12.721Z,15.00
2019-06-10T04:29:35.503Z,14.90
2019-06-10T04:32:58.083Z,14.90
2019-06-10T04:36:22.766Z,14.90
2019-06-10T04:39:44.231Z,14.90
2019-06-10T04:43:06.840Z,14.90
2019-06-10T04:46:29.623Z,14.80
2019-06-10T04:49:52.474Z,14.70
2019-06-10T04:53:15.230Z,14.70
2019-06-10T04:56:37.666Z,14.70
2019-06-10T05:00:02.571Z,14.70
2019-06-10T05:03:26.545Z,14.70
2019-06-10T05:06:48.502Z,14.80
2019-06-10T05:10:12.637Z,14.80
2019-06-10T05:13:34.927Z,14.90
2019-06-10T05:16:57.380Z,14.90
2019-06-10T05:20:20.128Z,14.90
2019-06-10T05:23:43.240Z,14.90
2019-06-10T05:27:05.442Z,15.00
2019-06-10T05:30:29.571Z,15.20
2019-06-10T05:33:52.990Z,15.30
2019-06-10T05:37:15.701Z,15.50
2019-06-10T05:40:38.331Z,15.60
2019-06-10T05:44:02.665Z,15.80
2019-06-10T05:47:27.753Z,16.00
2019-06-10T05:51:02.629Z,16.20
2019-06-10T05:54:16.628Z,16.40
2019-06-10T05:57:39.292Z,17.10
2019-06-10T06:01:02.746Z,17.50
2019-06-10T06:04:26.380Z,17.50
2019-06-10T06:08:01.394Z,17.20
2019-06-10T06:11:13.301Z,17.30
2019-06-10T06:14:36.190Z,17.40
2019-06-10T06:18:07.178Z,17.50
2019-06-10T06:21:30.045Z,17.40
2019-06-10T06:24:46.675Z,17.30
2019-06-10T06:28:09.035Z,17.40
2019-06-10T06:31:33.349Z,17.60
2019-06-10T06:34:55.545Z,18.00
2019-06-10T06:38:17.845Z,18.50
2019-06-10T06:41:42.649Z,18.90
2019-06-10T06:45:05.264Z,19.10
2019-06-10T06:48:27.918Z,19.40
2019-06-10T06:51:56.115Z,19.60
2019-06-10T06:55:14.606Z,19.50
2019-06-10T06:58:38.600Z,19.20
2019-06-10T07:02:02.772Z,18.80
2019-06-10T07:05:25.401Z,18.40
2019-06-10T07:09:00.235Z,18.20
2019-06-10T07:12:13.034Z,18.50
2019-06-10T07:15:46.566Z,18.80
2019-06-10T07:19:05.302Z,19.20
2019-06-10T07:22:28.263Z,19.40
2019-06-10T07:25:53.082Z,19.50
2019-06-10T07:29:15.180Z,19.60
2019-06-10T07:32:39.194Z,19.40
2019-06-10T07:36:03.311Z,19.60
2019-06-10T07:39:26.173Z,19.40
2019-06-10T07:42:48.604Z,19.40
2019-06-10T07:46:13.367Z,19.60
2019-06-10T07:49:35.415Z,19.70
2019-06-10T07:52:57.935Z,20.10
2019-06-10T07:56:23.003Z,20.10
2019-06-10T07:59:45.797Z,20.20
2019-06-10T08:03:08.710Z,20.50
2019-06-10T08:06:33.528Z,20.80
2019-06-10T08:09:55.568Z,20.90
2019-06-10T08:13:17.908Z,20.90
2019-06-10T08:16:40.357Z,21.20
2019-06-10T08:20:02.804Z,21.70
2019-06-10T08:23:25.261Z,22.20
2019-06-10T08:26:47.851Z,22.60
2019-06-10T08:30:18.561Z,23.30
2019-06-10T08:33:34.995Z,23.20
2019-06-10T08:36:57.389Z,22.90
2019-06-10T08:40:20.116Z,22.90
2019-06-10T08:43:45.204Z,22.90
2019-06-10T08:47:06.939Z,22.90
2019-06-10T08:50:29.618Z,22.80
2019-06-10T08:53:53.215Z,22.80
2019-06-10T08:57:16.144Z,22.30
2019-06-10T09:00:39.197Z,22.40
2019-06-10T09:04:03.169Z,22.70
2019-06-10T09:07:26.051Z,22.90
2019-06-10T09:10:51.176Z,23.00
2019-06-10T09:14:12.784Z,23.40
2019-06-10T09:17:35.466Z,23.60
2019-06-10T09:20:57.691Z,23.40
2019-06-10T09:24:22.180Z,23.50
2019-06-10T09:27:47.925Z,23.80
2019-06-10T09:31:08.463Z,23.90
2019-06-10T09:34:33.010Z,24.10
2019-06-10T09:37:55.842Z,24.20
2019-06-10T09:41:18.226Z,24.20
2019-06-10T09:44:45.155Z,24.60
2019-06-10T09:48:04.707Z,24.60
2019-06-10T09:51:27.316Z,24.90
2019-06-10T09:54:54.275Z,25.10
2019-06-10T09:58:13.560Z,25.00
2019-06-10T10:01:36.206Z,25.10
2019-06-10T10:04:58.782Z,25.10
2019-06-10T10:08:23.278Z,25.10
2019-06-10T10:11:47.390Z,25.00
2019-06-10T10:15:26.082Z,25.00
2019-06-10T10:18:34.203Z,24.90
2019-06-10T10:21:58.395Z,25.10
2019-06-10T10:25:23.405Z,25.60
2019-06-10T10:28:46.194Z,26.10
2019-06-10T10:32:08.555Z,26.40
2019-06-10T10:35:32.677Z,26.70
2019-06-10T10:38:56.656Z,26.00
2019-06-10T10:42:19.245Z,25.60
2019-06-10T10:45:43.456Z,25.50
2019-06-10T10:49:05.698Z,25.40
2019-06-10T10:52:28.142Z,25.40
2019-06-10T10:55:51.856Z,25.50
2019-06-10T10:59:14.804Z,25.60
2019-06-10T11:02:37.129Z,25.80
2019-06-10T11:06:01.074Z,25.90
2019-06-10T11:09:26.129Z,26.00
2019-06-10T11:12:49.101Z,25.70
2019-06-10T11:16:11.771Z,26.10
2019-06-10T11:19:34.538Z,25.90
2019-06-10T11:22:57.781Z,26.00
2019-06-10T11:26:22.856Z,25.90
2019-06-10T11:29:46.095Z,25.70
2019-06-10T11:33:08.459Z,25.50
2019-06-10T11:36:30.720Z,25.70
2019-06-10T11:39:54.958Z,25.90
2019-06-10T11:43:17.564Z,26.10
2019-06-10T11:46:40.017Z,26.50
2019-06-10T11:50:03.567Z,26.60
2019-06-10T11:53:28.673Z,26.70
2019-06-10T11:56:49.829Z,26.60
2019-06-10T12:00:14.734Z,26.50
2019-06-10T12:03:36.928Z,26.10
2019-06-10T12:06:59.485Z,26.20
2019-06-10T12:10:23.322Z,26.60
2019-06-10T12:13:45.528Z,26.20
2019-06-10T12:17:31.155Z,26.20
2019-06-10T12:20:33.399Z,26.20
2019-06-10T12:24:00.067Z,26.10
2019-06-10T12:27:20.289Z,26.30
2019-06-10T12:30:42.528Z,26.40
2019-06-10T12:34:06.035Z,26.80
2019-06-10T12:37:28.679Z,26.80
2019-06-10T12:40:52.427Z,26.50
2019-06-10T12:44:15.232Z,26.40
2019-06-10T12:47:37.745Z,26.60
2019-06-10T12:51:01.690Z,26.90
2019-06-10T12:54:24.012Z,27.00
2019-06-10T12:57:46.186Z,26.80
2019-06-10T13:01:08.848Z,26.60
2019-06-10T13:04:31.654Z,26.80
2019-06-10T13:07:55.481Z,27.10
2019-06-10T13:11:17.948Z,27.50
2019-06-10T13:14:42.884Z,27.50
2019-06-10T13:18:07.560Z,27.70
2019-06-10T13:21:28.888Z,27.30
2019-06-10T13:24:53.532Z,27.10
2019-06-10T13:28:15.432Z,27.10
2019-06-10T13:31:37.814Z,27.30
2019-06-10T13:35:00.899Z,27.40
2019-06-10T13:38:25.853Z,27.30
2019-06-10T13:41:47.098Z,27.20
2019-06-10T13:45:10.990Z,27.10
2019-06-10T13:48:33.393Z,27.30
2019-06-10T13:51:55.631Z,27.50
2019-06-10T13:55:17.962Z,27.70
2019-06-10T13:58:45.076Z,27.60
2019-06-10T14:02:06.391Z,27.60
2019-06-10T14:05:28.132Z,27.90
2019-06-10T14:08:54.577Z,28.10
2019-06-10T14:12:17.315Z,27.90
2019-06-10T14:15:38.586Z,27.80
2019-06-10T14:19:02.123Z,27.70
2019-06-10T14:22:24.783Z,27.70
2019-06-10T14:25:47.375Z,27.50
2019-06-10T14:29:12.523Z,27.10
2019-06-10T14:32:34.114Z,27.20
2019-06-10T14:35:56.460Z,27.10
2019-06-10T14:39:19.116Z,27.30
2019-06-10T14:42:42.905Z,27.20
2019-06-10T14:46:07.214Z,27.20
2019-06-10T14:49:29.223Z,27.20
2019-06-10T14:52:51.927Z,26.90
2019-06-10T14:56:17.269Z,26.80
2019-06-10T14:59:38.164Z,26.80
2019-06-10T15:03:02.436Z,26.80
2019-06-10T15:06:24.066Z,27.00
2019-06-10T15:09:46.499Z,27.00
2019-06-10T15:13:09.716Z,27.00
2019-06-10T15:16:33.603Z,27.10
2019-06-10T15:19:56.479Z,27.30
2019-06-10T15:23:20.409Z,27.10
2019-06-10T15:26:42.796Z,26.90
2019-06-10T15:30:12.345Z,26.60
2019-06-10T15:33:32.412Z,26.70
2019-06-10T15:36:54.191Z,26.80
2019-06-10T15:40:17.918Z,26.80
2019-06-10T15:43:42.247Z,26.80
2019-06-10T15:47:04.343Z,26.80
2019-06-10T15:50:27.687Z,26.90
2019-06-10T15:53:49.853Z,26.90
2019-06-10T15:57:26.880Z,26.90
2019-06-10T16:00:36.358Z,26.90
2019-06-10T16:03:58.948Z,26.90
2019-06-10T16:07:25.354Z,26.70
2019-06-10T16:10:45.451Z,26.70
2019-06-10T16:14:07.781Z,26.50
2019-06-10T16:17:33.103Z,26.40
2019-06-10T16:20:53.896Z,26.50
2019-06-10T16:24:17.250Z,26.40
2019-06-10T16:27:47.189Z,26.50
2019-06-10T16:31:03.970Z,26.60
2019-06-10T16:34:28.812Z,26.70
2019-06-10T16:37:52.989Z,26.70
2019-06-10T16:41:15.317Z,26.70
2019-06-10T16:44:37.627Z,26.70
2019-06-10T16:48:02.349Z,26.70
2019-06-10T16:51:25.649Z,26.70
2019-06-10T16:54:48.495Z,26.70
2019-06-10T16:58:12.922Z,26.70
2019-06-10T17:01:35.495Z,26.60
2019-06-10T17:04:58.626Z,26.60
2019-06-10T17:08:26.062Z,26.50
2019-06-10T17:11:45.236Z,26.50
2019-06-10T17:15:09.058Z,26.40
2019-06-10T17:18:33.651Z,26.40
2019-06-10T17:21:55.861Z,26.30
2019-06-10T17:25:19.044Z,26.20
2019-06-10T17:28:42.864Z,26.10
2019-06-10T17:32:05.427Z,26.20
2019-06-10T17:35:28.611Z,26.20
2019-06-10T17:38:52.395Z,26.10
2019-06-10T17:42:14.841Z,26.10
2019-06-10T17:45:37.687Z,26.10
2019-06-10T17:49:02.444Z,26.10
2019-06-10T17:52:25.754Z,26.00
2019-06-10T17:55:48.415Z,25.90
2019-06-10T17:59:12.657Z,25.80
2019-06-10T18:02:39.169Z,25.70
2019-06-10T18:05:58.617Z,25.70
2019-06-10T18:09:22.718Z,25.60
2019-06-10T18:12:44.528Z,25.60
2019-06-10T18:16:06.960Z,25.50
2019-06-10T18:19:30.429Z,25.50
2019-06-10T18:22:53.036Z,25.40
2019-06-10T18:26:15.500Z,25.30
2019-06-10T18:29:37.706Z,25.30
2019-06-10T18:33:02.745Z,25.20
2019-06-10T18:36:24.655Z,25.10
2019-06-10T18:39:47.041Z,25.10
2019-06-10T18:43:12.044Z,25.00
2019-06-10T18:46:36.483Z,24.90
2019-06-10T18:49:58.028Z,24.80
2019-06-10T18:53:23.169Z,24.70
2019-06-10T18:56:44.352Z,24.60
2019-06-10T19:00:13.733Z,24.60
2019-06-10T19:03:34.716Z,24.50
2019-06-10T19:06:56.054Z,24.40
2019-06-10T19:10:19.486Z,24.30
2019-06-10T19:13:43.633Z,24.30
2019-06-10T19:17:06.138Z,24.20
2019-06-10T19:20:29.856Z,24.10
2019-06-10T19:23:53.228Z,24.10
2019-06-10T19:27:15.457Z,24.00
2019-06-10T19:30:39.374Z,24.00
2019-06-10T19:34:03.420Z,23.90
2019-06-10T19:37:25.830Z,23.80
2019-06-10T19:40:47.919Z,23.80
2019-06-10T19:44:12.879Z,23.80
2019-06-10T19:47:36.309Z,23.70
2019-06-10T19:50:59.052Z,23.60
2019-06-10T19:54:21.721Z,23.60
2019-06-10T19:57:44.393Z,23.50
2019-06-10T20:01:06.530Z,23.50
2019-06-10T20:04:28.953Z,23.40
2019-06-10T20:07:53.319Z,23.30
2019-06-10T20:11:15.157Z,23.20
2019-06-10T20:14:38.437Z,23.20
2019-06-10T20:18:02.846Z,23.10
2019-06-10T20:21:25.111Z,23.10
2019-06-10T20:24:48.885Z,23.20
2019-06-10T20:28:13.181Z,23.20
2019-06-10T20:31:35.829Z,23.20
2019-06-10T20:34:58.501Z,23.20
2019-06-10T20:38:22.307Z,23.20
2019-06-10T20:41:50.490Z,23.10
2019-06-10T20:45:09.636Z,23.10
2019-06-10T20:48:33.187Z,23.10
2019-06-10T20:52:09.837Z,23.10
2019-06-10T20:55:19.828Z,23.10
2019-06-10T20:58:43.773Z,23.10
2019-06-10T21:02:06.414Z,23.00
2019-06-10T21:05:29.324Z,23.00
2019-06-10T21:08:53.759Z,23.00
2019-06-10T21:12:15.797Z,23.00
2019-06-10T21:15:39.724Z,22.90
2019-06-10T21:19:02.596Z,22.80
2019-06-10T21:22:24.975Z,22.60
2019-06-10T21:25:49.451Z,22.50
2019-06-10T21:29:12.878Z,22.30
2019-06-10T21:32:35.552Z,22.20
2019-06-10T21:35:57.797Z,22.30
2019-06-10T21:39:20.454Z,22.20
2019-06-10T21:42:43.683Z,22.20
2019-06-10T21:46:06.123Z,22.20
2019-06-10T21:49:28.630Z,22.20
2019-06-10T21:52:53.104Z,22.20
2019-06-10T21:56:15.088Z,22.10
2019-06-10T21:59:37.588Z,22.10
2019-06-10T22:03:02.203Z,22.10
2019-06-10T22:06:24.147Z,22.10
2019-06-10T22:09:47.677Z,22.10
2019-06-10T22:13:12.376Z,22.00
2019-06-10T22:16:35.009Z,21.90
2019-06-10T22:19:57.755Z,21.70
2019-06-10T22:23:20.334Z,21.50
2019-06-10T22:26:42.616Z,21.30
2019-06-10T22:30:11.121Z,21.20
2019-06-10T22:33:29.562Z,21.00
2019-06-10T22:36:53.837Z,21.10
2019-06-10T22:40:16.215Z,21.00
2019-06-10T22:43:38.157Z,20.90
2019-06-10T22:47:02.798Z,20.80
2019-06-10T22:50:24.627Z,20.70
2019-06-10T22:53:48.260Z,20.60
2019-06-10T22:57:12.967Z,20.60
2019-06-10T23:00:35.704Z,20.50
2019-06-10T23:03:57.857Z,20.50
2019-06-10T23:07:22.926Z,20.40
2019-06-10T23:10:44.584Z,20.40
2019-06-10T23:14:07.041Z,20.30
2019-06-10T23:17:29.637Z,20.20
2019-06-10T23:20:55.585Z,20.20
2019-06-10T23:24:16.082Z,20.20
2019-06-10T23:27:41.072Z,20.20
2019-06-10T23:31:04.937Z,20.10
2019-06-10T23:34:26.027Z,20.10
2019-06-10T23:37:48.171Z,20.00
2019-06-10T23:41:13.012Z,20.10
2019-06-10T23:44:35.189Z,20.00
2019-06-10T23:47:58.071Z,20.00
2019-06-10T23:51:22.824Z,20.00
2019-06-10T23:54:45.292Z,19.90
2019-06-10T23:58:07.726Z,19.90
